Time;durP1;ratioP1;P1;durP2;ratioP2;P2;SDS_P1;SDS_P2;PMS_P1;PMS_P2;Temp;Humidity;BMP_temperature;BMP_pressure;BME280_temperature;BME280_humidity;BME280_pressure;Samples;Min_cycle;Max_cycle;Signal;HPM_P1;HPM_P2
2022/05/07 00:00:45;;;;;;;1.50;1.40;;;;;;;;;;5033453;28;20226;-80
2022/05/07 00:03:14;;;;;;;2.00;1.77;;;;;;;;;;5033315;28;20207;-80
2022/05/07 00:05:41;;;;;;;1.67;1.58;;;;;;;;;;5033436;28;20236;-79
2022/05/07 00:08:08;;;;;;;1.77;1.67;;;;;;;;;;5033785;28;20226;-81
2022/05/07 00:10:36;;;;;;;1.50;1.40;;;;;;;;;;5033691;28;20202;-80
2022/05/07 00:13:04;;;;;;;1.70;1.60;;;;;;;;;;5033693;28;20206;-80
2022/05/07 00:15:32;;;;;;;1.58;1.48;;;;;;;;;;5033719;28;20198;-79
2022/05/07 00:18:06;;;;;;;1.70;1.60;;;;;;;;;;5033906;28;20225;-80
2022/05/07 00:20:35;;;;;;;1.30;1.30;;;;;;;;;;5033780;28;20228;-81
2022/05/07 00:23:03;;;;;;;2.03;1.92;;;;;;;;;;5032904;28;20202;-81
2022/05/07 00:25:32;;;;;;;1.30;1.25;;;;;;;;;;5033530;28;20253;-81
2022/05/07 00:27:59;;;;;;;1.45;1.40;;;;;;;;;;5033297;28;20276;-80
2022/05/07 00:30:26;;;;;;;1.40;1.30;;;;;;;;;;5033268;28;20206;-80
2022/05/07 00:32:53;;;;;;;1.70;1.60;;;;;;;;;;5032744;28;20252;-81
2022/05/07 00:35:21;;;;;;;1.52;1.42;;;;;;;;;;5033095;28;20210;-82
2022/05/07 00:37:49;;;;;;;1.67;1.58;;;;;;;;;;5032577;28;20225;-80
2022/05/07 00:40:17;;;;;;;1.15;1.15;;;;;;;;;;5033481;28;20201;-79
2022/05/07 00:42:44;;;;;;;1.35;1.25;;;;;;;;;;5032484;28;20737;-80
2022/05/07 00:45:11;;;;;;;1.60;1.50;;;;;;;;;;5033314;28;20206;-80
2022/05/07 00:47:39;;;;;;;1.90;1.80;;;;;;;;;;5033199;28;20226;-79
2022/05/07 00:52:54;;;;;;;1.50;1.40;;;;;;;;;;5032747;28;20205;-79
2022/05/07 00:55:22;;;;;;;2.10;2.00;;;;;;;;;;5033348;28;20210;-80
2022/05/07 00:57:49;;;;;;;1.60;1.50;;;;;;;;;;5032836;28;20664;-82
2022/05/07 01:00:17;;;;;;;2.20;2.00;;;;;;;;;;5037100;28;20218;-79
2022/05/07 01:02:44;;;;;;;1.88;1.73;;;;;;;;;;5036152;28;20218;-80
2022/05/07 01:05:11;;;;;;;1.95;1.60;;;;;;;;;;5036788;28;20205;-79
2022/05/07 01:07:39;;;;;;;1.80;1.70;;;;;;;;;;5036577;28;20229;-79
2022/05/07 01:10:09;;;;;;;1.77;1.67;;;;;;;;;;5036528;28;20706;-80
2022/05/07 01:12:36;;;;;;;2.28;2.17;;;;;;;;;;5035831;28;20253;-81
2022/05/07 01:15:05;;;;;;;1.80;1.70;;;;;;;;;;5036896;28;20213;-80
2022/05/07 01:17:33;;;;;;;1.88;1.77;;;;;;;;;;5036680;28;20296;-80
2022/05/07 01:20:00;;;;;;;2.20;2.00;;;;;;;;;;5036703;28;20237;-80
2022/05/07 01:22:30;;;;;;;2.13;1.98;;;;;;;;;;5036125;28;20218;-81
2022/05/07 01:24:58;;;;;;;2.08;1.95;;;;;;;;;;5036184;28;20637;-81
2022/05/07 01:27:26;;;;;;;2.58;2.35;;;;;;;;;;5036635;28;20202;-80
2022/05/07 01:29:53;;;;;;;2.47;2.22;;;;;;;;;;5036342;28;20234;-80
2022/05/07 01:32:20;;;;;;;2.60;2.20;;;;;;;;;;5016196;28;20199;-79
2022/05/07 01:34:48;;;;;;;2.20;2.00;;;;;;;;;;5016588;28;20213;-80
2022/05/07 01:37:15;;;;;;;3.67;3.38;;;;;;;;;;5016572;28;20203;-80
2022/05/07 01:39:43;;;;;;;1.92;1.83;;;;;;;;;;5016287;28;20207;-80
2022/05/07 01:42:11;;;;;;;2.10;2.00;;;;;;;;;;5015387;28;20223;-81
2022/05/07 01:44:38;;;;;;;3.65;2.25;;;;;;;;;;5016260;28;20210;-81
2022/05/07 01:50:07;;;;;;;2.20;2.00;;;;;;;;;;4936264;29;20205;-80
2022/05/07 01:52:35;;;;;;;2.97;2.70;;;;;;;;;;4934649;29;20650;-80
2022/05/07 01:55:04;;;;;;;1.92;1.83;;;;;;;;;;4971514;28;20210;-79
2022/05/07 01:57:31;;;;;;;1.70;1.60;;;;;;;;;;5015604;28;20254;-79
2022/05/07 01:59:59;;;;;;;1.67;1.58;;;;;;;;;;5015757;28;20249;-79
2022/05/07 02:02:26;;;;;;;2.40;2.30;;;;;;;;;;5034491;28;20237;-79
2022/05/07 02:04:54;;;;;;;2.92;2.72;;;;;;;;;;5036056;28;20206;-80
2022/05/07 02:07:21;;;;;;;1.83;1.73;;;;;;;;;;5035575;28;20248;-80
2022/05/07 02:09:48;;;;;;;1.75;1.65;;;;;;;;;;5034598;28;20206;-79
2022/05/07 02:12:17;;;;;;;2.40;2.20;;;;;;;;;;5034464;28;20198;-81
2022/05/07 02:14:44;;;;;;;2.20;2.10;;;;;;;;;;5034976;28;20206;-80
2022/05/07 02:17:11;;;;;;;2.42;2.22;;;;;;;;;;5034724;28;20253;-79
2022/05/07 02:19:39;;;;;;;2.67;2.47;;;;;;;;;;5035417;28;20202;-80
2022/05/07 02:22:06;;;;;;;2.40;2.20;;;;;;;;;;5034576;28;20222;-79
2022/05/07 02:24:33;;;;;;;2.60;2.35;;;;;;;;;;5035095;28;20284;-80
2022/05/07 02:27:00;;;;;;;2.58;2.38;;;;;;;;;;5034969;28;20256;-79
2022/05/07 02:29:29;;;;;;;2.80;2.38;;;;;;;;;;5034671;28;20218;-80
2022/05/07 02:32:06;;;;;;;2.30;2.10;;;;;;;;;;5033958;28;20617;-80
2022/05/07 02:34:33;;;;;;;2.10;1.90;;;;;;;;;;5035313;28;20193;-80
2022/05/07 02:37:01;;;;;;;1.75;1.65;;;;;;;;;;5034708;28;20206;-79
2022/05/07 02:39:29;;;;;;;2.17;1.98;;;;;;;;;;5034270;28;20230;-79
2022/05/07 02:44:43;;;;;;;1.95;1.85;;;;;;;;;;5034529;28;20200;-79
2022/05/07 02:47:11;;;;;;;2.30;1.95;;;;;;;;;;5034528;28;20210;-79
2022/05/07 02:49:38;;;;;;;3.50;2.90;;;;;;;;;;5033827;28;20217;-79
2022/05/07 02:52:06;;;;;;;3.53;1.98;;;;;;;;;;5033422;28;20610;-80
2022/05/07 02:54:33;;;;;;;2.13;2.03;;;;;;;;;;5034145;28;20749;-80
2022/05/07 02:57:01;;;;;;;2.78;2.35;;;;;;;;;;5034214;28;20244;-79
2022/05/07 02:59:29;;;;;;;2.28;2.03;;;;;;;;;;5033102;28;20745;-79
2022/05/07 03:01:58;;;;;;;1.98;1.88;;;;;;;;;;5033340;28;20218;-79
2022/05/07 03:04:25;;;;;;;2.35;2.25;;;;;;;;;;5033243;28;20202;-79
2022/05/07 03:06:52;;;;;;;2.50;2.30;;;;;;;;;;5033624;28;20628;-79
2022/05/07 03:09:19;;;;;;;2.22;2.13;;;;;;;;;;5033823;28;20272;-80
2022/05/07 03:11:47;;;;;;;1.95;1.85;;;;;;;;;;5032866;28;20202;-79
2022/05/07 03:14:14;;;;;;;2.17;2.08;;;;;;;;;;5031954;28;20209;-80
2022/05/07 03:16:41;;;;;;;3.22;2.03;;;;;;;;;;5033999;28;20207;-79
2022/05/07 03:19:10;;;;;;;2.38;2.17;;;;;;;;;;5033297;28;20280;-79
2022/05/07 03:21:37;;;;;;;2.42;2.22;;;;;;;;;;5032199;28;20210;-79
2022/05/07 03:24:05;;;;;;;2.60;2.40;;;;;;;;;;5033240;28;20226;-80
2022/05/07 03:26:32;;;;;;;2.45;2.25;;;;;;;;;;5033496;28;20210;-79
2022/05/07 03:28:59;;;;;;;2.67;2.45;;;;;;;;;;5033494;28;20222;-79
2022/05/07 03:31:27;;;;;;;2.28;2.10;;;;;;;;;;5033428;28;20706;-79
2022/05/07 03:33:54;;;;;;;2.38;2.05;;;;;;;;;;5032856;28;20687;-78
2022/05/07 03:36:23;;;;;;;2.15;2.05;;;;;;;;;;5033244;28;20202;-78
2022/05/07 03:38:51;;;;;;;2.40;2.20;;;;;;;;;;5033612;28;20226;-79
2022/05/07 03:41:19;;;;;;;3.00;2.80;;;;;;;;;;5033577;28;20206;-78
2022/05/07 03:43:46;;;;;;;2.13;2.03;;;;;;;;;;5032565;28;20268;-79
2022/05/07 03:46:13;;;;;;;3.08;2.33;;;;;;;;;;5033062;28;20228;-79
2022/05/07 03:48:41;;;;;;;2.30;2.20;;;;;;;;;;5032976;28;20608;-80
2022/05/07 03:51:08;;;;;;;3.28;3.08;;;;;;;;;;5033538;28;20284;-79
2022/05/07 03:53:37;;;;;;;3.22;2.67;;;;;;;;;;5032457;28;20551;-79
2022/05/07 03:56:07;;;;;;;2.08;1.98;;;;;;;;;;5033452;28;20288;-79
2022/05/07 03:58:35;;;;;;;2.95;2.75;;;;;;;;;;5033015;28;20263;-79
2022/05/07 04:01:03;;;;;;;2.53;2.33;;;;;;;;;;5058312;22;20997;-82
2022/05/07 04:03:31;;;;;;;2.00;1.90;;;;;;;;;;5053355;28;20218;-81
2022/05/07 04:05:59;;;;;;;2.25;2.10;;;;;;;;;;5057048;28;20202;-82
2022/05/07 04:08:26;;;;;;;2.17;1.98;;;;;;;;;;5056429;28;20255;-82
2022/05/07 04:10:55;;;;;;;2.03;1.88;;;;;;;;;;5055855;28;20681;-82
2022/05/07 04:13:22;;;;;;;3.50;2.20;;;;;;;;;;5054941;28;20288;-82
2022/05/07 04:15:50;;;;;;;1.98;1.85;;;;;;;;;;5055177;28;20197;-82
2022/05/07 04:18:17;;;;;;;2.85;2.65;;;;;;;;;;5055621;28;20202;-82
2022/05/07 04:20:44;;;;;;;2.25;2.05;;;;;;;;;;5055445;28;20209;-82
2022/05/07 04:23:12;;;;;;;2.17;1.77;;;;;;;;;;5054674;28;20721;-81
2022/05/07 04:25:39;;;;;;;2.22;2.13;;;;;;;;;;5055429;28;20209;-81
2022/05/07 04:28:07;;;;;;;2.05;1.90;;;;;;;;;;5055103;28;20212;-84
2022/05/07 04:30:35;;;;;;;1.80;1.70;;;;;;;;;;5056241;28;20209;-81
2022/05/07 04:33:02;;;;;;;1.95;1.85;;;;;;;;;;5057729;28;20251;-83
2022/05/07 04:35:30;;;;;;;2.10;1.95;;;;;;;;;;5054894;28;20202;-83
2022/05/07 04:37:57;;;;;;;2.00;1.90;;;;;;;;;;5055140;28;20228;-83
2022/05/07 04:40:24;;;;;;;2.50;2.30;;;;;;;;;;5055004;28;20213;-83
2022/05/07 04:42:51;;;;;;;2.60;2.40;;;;;;;;;;5054313;28;20221;-83
2022/05/07 04:45:20;;;;;;;3.00;2.70;;;;;;;;;;5054507;28;20213;-83
2022/05/07 04:47:47;;;;;;;2.67;2.30;;;;;;;;;;5054010;28;20259;-83
2022/05/07 04:50:16;;;;;;;2.50;2.30;;;;;;;;;;5054902;28;20673;-83
2022/05/07 04:52:43;;;;;;;2.00;1.90;;;;;;;;;;5054641;28;20608;-83
2022/05/07 04:55:10;;;;;;;1.92;1.83;;;;;;;;;;5055534;28;20673;-81
2022/05/07 04:57:38;;;;;;;1.50;1.40;;;;;;;;;;5055584;28;20249;-83
2022/05/07 05:00:07;;;;;;;1.70;1.60;;;;;;;;;;5055834;28;20319;-83
2022/05/07 05:02:36;;;;;;;2.50;2.30;;;;;;;;;;5054332;28;20287;-82
2022/05/07 05:05:04;;;;;;;2.20;1.98;;;;;;;;;;5054697;28;20245;-83
2022/05/07 05:07:31;;;;;;;2.15;1.98;;;;;;;;;;5055623;28;20202;-84
2022/05/07 05:09:58;;;;;;;1.75;1.65;;;;;;;;;;5055125;28;20202;-84
2022/05/07 05:12:25;;;;;;;1.88;1.55;;;;;;;;;;5054527;28;20648;-83
2022/05/07 05:15:06;;;;;;;2.00;1.88;;;;;;;;;;5055048;28;20712;-83
2022/05/07 05:17:37;;;;;;;2.38;2.17;;;;;;;;;;5054365;28;20197;-83
2022/05/07 05:20:06;;;;;;;2.20;2.10;;;;;;;;;;5054990;28;20201;-81
2022/05/07 05:22:33;;;;;;;2.00;1.83;;;;;;;;;;5054522;28;20225;-81
2022/05/07 05:25:04;;;;;;;1.80;1.70;;;;;;;;;;5054659;28;20708;-84
2022/05/07 05:27:31;;;;;;;2.75;2.55;;;;;;;;;;5054326;28;20202;-84
2022/05/07 05:29:58;;;;;;;2.70;2.50;;;;;;;;;;5053632;28;20202;-84
2022/05/07 05:32:25;;;;;;;2.58;2.38;;;;;;;;;;5053635;28;20724;-82
2022/05/07 05:34:55;;;;;;;2.85;2.60;;;;;;;;;;5055752;28;20202;-84
2022/05/07 05:37:22;;;;;;;2.50;2.30;;;;;;;;;;5054200;28;20313;-81
2022/05/07 05:39:49;;;;;;;3.05;2.75;;;;;;;;;;5055585;28;20198;-81
2022/05/07 05:42:17;;;;;;;2.78;2.53;;;;;;;;;;5053535;28;20226;-77
2022/05/07 05:44:44;;;;;;;2.70;2.50;;;;;;;;;;5055325;28;20263;-77
2022/05/07 05:47:12;;;;;;;3.72;3.40;;;;;;;;;;5057741;28;20255;-77
2022/05/07 05:49:39;;;;;;;2.90;2.67;;;;;;;;;;5057648;28;20198;-77
2022/05/07 05:52:09;;;;;;;4.28;3.22;;;;;;;;;;5056218;28;20275;-77
2022/05/07 05:54:37;;;;;;;2.65;2.45;;;;;;;;;;5056670;28;20201;-77
2022/05/07 05:57:05;;;;;;;3.30;3.00;;;;;;;;;;5057512;28;20335;-77
2022/05/07 05:59:32;;;;;;;3.17;2.97;;;;;;;;;;5056829;28;20224;-78
2022/05/07 06:02:00;;;;;;;2.88;2.65;;;;;;;;;;5056652;28;20980;-76
2022/05/07 06:04:27;;;;;;;2.47;2.28;;;;;;;;;;5056725;28;20287;-77
2022/05/07 06:06:54;;;;;;;2.50;2.30;;;;;;;;;;5055666;28;20255;-77
2022/05/07 06:09:23;;;;;;;3.10;2.80;;;;;;;;;;5054678;28;20279;-77
2022/05/07 06:11:51;;;;;;;2.35;2.15;;;;;;;;;;5054446;28;20759;-77
2022/05/07 06:14:18;;;;;;;2.63;2.42;;;;;;;;;;5055882;28;20197;-78
2022/05/07 06:16:45;;;;;;;2.38;2.28;;;;;;;;;;5056235;28;20635;-78
2022/05/07 06:19:13;;;;;;;2.45;2.25;;;;;;;;;;5055323;28;20693;-77
2022/05/07 06:21:40;;;;;;;3.13;2.88;;;;;;;;;;5055040;28;20225;-77
2022/05/07 06:29:39;;;;;;;3.20;2.90;;;;;;;;;;5055617;28;20240;-77
2022/05/07 06:32:07;;;;;;;2.60;2.33;;;;;;;;;;5054562;28;20217;-77
2022/05/07 06:34:34;;;;;;;2.42;2.22;;;;;;;;;;5055212;28;20210;-78
2022/05/07 06:37:01;;;;;;;2.80;2.60;;;;;;;;;;5055530;28;20209;-77
2022/05/07 06:39:29;;;;;;;2.53;2.33;;;;;;;;;;5055143;28;20202;-77
2022/05/07 06:41:57;;;;;;;2.63;2.40;;;;;;;;;;5054344;28;20232;-79
2022/05/07 06:44:24;;;;;;;2.85;2.58;;;;;;;;;;5055241;28;20218;-77
2022/05/07 06:46:52;;;;;;;3.20;2.90;;;;;;;;;;5055855;28;20259;-78
2022/05/07 06:49:20;;;;;;;2.63;2.35;;;;;;;;;;5055423;28;20201;-77
2022/05/07 06:51:47;;;;;;;2.38;2.17;;;;;;;;;;5054866;28;20251;-77
2022/05/07 06:54:14;;;;;;;2.25;2.15;;;;;;;;;;5055741;28;20202;-77
2022/05/07 06:56:41;;;;;;;3.10;2.90;;;;;;;;;;5055395;28;20254;-78
2022/05/07 06:59:11;;;;;;;2.83;2.40;;;;;;;;;;5056127;28;20625;-78
2022/05/07 07:01:38;;;;;;;3.92;3.38;;;;;;;;;;5054525;28;20329;-78
2022/05/07 07:04:06;;;;;;;3.60;3.30;;;;;;;;;;5055263;28;20263;-78
2022/05/07 07:06:33;;;;;;;2.63;2.42;;;;;;;;;;5055886;28;20228;-78
2022/05/07 07:09:00;;;;;;;4.20;2.88;;;;;;;;;;5055777;28;20206;-78
2022/05/07 07:11:27;;;;;;;3.03;2.83;;;;;;;;;;5055313;28;20275;-78
2022/05/07 07:13:55;;;;;;;4.13;3.53;;;;;;;;;;5054653;28;20627;-78
2022/05/07 07:16:23;;;;;;;3.63;3.20;;;;;;;;;;5055247;28;20297;-77
2022/05/07 07:18:51;;;;;;;2.92;2.72;;;;;;;;;;5054813;28;20675;-78
2022/05/07 07:21:18;;;;;;;2.70;2.50;;;;;;;;;;5055529;28;20218;-78
2022/05/07 07:23:45;;;;;;;2.72;2.15;;;;;;;;;;5055258;28;20254;-78
2022/05/07 07:26:13;;;;;;;2.60;2.30;;;;;;;;;;5055027;28;20276;-78
2022/05/07 07:28:40;;;;;;;3.85;2.85;;;;;;;;;;5055803;28;20206;-77
2022/05/07 07:31:08;;;;;;;2.80;2.60;;;;;;;;;;5057164;28;20218;-78
2022/05/07 07:33:37;;;;;;;2.63;2.42;;;;;;;;;;5057170;28;20616;-79
2022/05/07 07:36:05;;;;;;;2.28;2.17;;;;;;;;;;5056344;28;20308;-78
2022/05/07 07:38:32;;;;;;;3.53;2.72;;;;;;;;;;5055517;28;20259;-78
2022/05/07 07:40:59;;;;;;;3.30;3.00;;;;;;;;;;5055683;28;20216;-78
2022/05/07 07:43:27;;;;;;;4.13;2.85;;;;;;;;;;5055514;28;20623;-78
2022/05/07 07:48:40;;;;;;;3.13;2.83;;;;;;;;;;5056630;28;20259;-78
2022/05/07 07:51:08;;;;;;;3.47;3.15;;;;;;;;;;5055951;28;20773;-79
2022/05/07 07:53:36;;;;;;;3.30;2.55;;;;;;;;;;5056092;28;20201;-79
2022/05/07 07:56:04;;;;;;;2.70;2.30;;;;;;;;;;5056135;28;20255;-78
2022/05/07 07:58:31;;;;;;;2.75;2.40;;;;;;;;;;5055488;28;20201;-78
2022/05/07 08:00:59;;;;;;;3.50;3.20;;;;;;;;;;5054763;28;20205;-78
2022/05/07 08:03:26;;;;;;;4.00;3.70;;;;;;;;;;5055055;28;20252;-78
2022/05/07 08:05:57;;;;;;;3.17;2.88;;;;;;;;;;5055727;28;20724;-79
2022/05/07 08:13:54;;;;;;;2.90;2.70;;;;;;;;;;5055469;28;20204;-79
2022/05/07 08:16:24;;;;;;;2.70;2.50;;;;;;;;;;5055428;28;20202;-79
2022/05/07 08:18:51;;;;;;;2.70;2.50;;;;;;;;;;5055826;28;20210;-79
2022/05/07 08:21:20;;;;;;;4.85;4.40;;;;;;;;;;5056026;28;20226;-79
2022/05/07 08:23:47;;;;;;;4.38;3.97;;;;;;;;;;5055922;28;20236;-79
2022/05/07 08:26:15;;;;;;;4.82;4.43;;;;;;;;;;5054294;28;20229;-78
2022/05/07 08:28:43;;;;;;;4.80;4.35;;;;;;;;;;5057379;28;20259;-79
2022/05/07 08:31:11;;;;;;;4.85;3.30;;;;;;;;;;5054810;28;20229;-79
2022/05/07 08:33:41;;;;;;;4.40;4.00;;;;;;;;;;5053425;28;20205;-80
2022/05/07 08:36:10;;;;;;;3.92;3.53;;;;;;;;;;5056027;28;20209;-80
2022/05/07 08:38:40;;;;;;;3.20;2.90;;;;;;;;;;5056151;28;20241;-79
2022/05/07 08:41:07;;;;;;;3.17;2.85;;;;;;;;;;5055182;28;20239;-80
2022/05/07 08:43:36;;;;;;;3.83;3.42;;;;;;;;;;5054669;28;20201;-80
2022/05/07 08:46:11;;;;;;;3.30;3.00;;;;;;;;;;5057078;28;20264;-79
2022/05/07 08:48:40;;;;;;;3.63;2.97;;;;;;;;;;5055949;28;20208;-79
2022/05/07 08:51:08;;;;;;;3.05;2.85;;;;;;;;;;5055905;28;20244;-80
2022/05/07 08:53:35;;;;;;;3.50;3.20;;;;;;;;;;5055516;28;20198;-79
2022/05/07 08:56:05;;;;;;;4.28;3.45;;;;;;;;;;5057491;28;20201;-81
2022/05/07 08:58:32;;;;;;;3.63;3.33;;;;;;;;;;5057535;28;20749;-80
2022/05/07 09:01:00;;;;;;;4.72;3.60;;;;;;;;;;5057055;28;20255;-81
2022/05/07 09:03:39;;;;;;;4.40;4.03;;;;;;;;;;5056092;28;20202;-80
2022/05/07 09:06:21;;;;;;;5.75;3.80;;;;;;;;;;5056890;28;20224;-80
2022/05/07 09:08:49;;;;;;;3.83;3.38;;;;;;;;;;5057583;28;20197;-80
2022/05/07 09:11:18;;;;;;;3.17;2.78;;;;;;;;;;5057403;28;20210;-80
2022/05/07 09:13:46;;;;;;;3.42;3.13;;;;;;;;;;5055589;28;20198;-81
2022/05/07 09:16:14;;;;;;;4.63;4.03;;;;;;;;;;5057280;28;20193;-81
2022/05/07 09:18:49;;;;;;;3.33;3.03;;;;;;;;;;5056041;28;20201;-81
2022/05/07 09:21:26;;;;;;;5.18;3.65;;;;;;;;;;5061937;28;20290;-80
2022/05/07 09:24:03;;;;;;;3.75;3.45;;;;;;;;;;5061221;28;20620;-81
2022/05/07 09:26:34;;;;;;;2.53;2.33;;;;;;;;;;5061758;28;20225;-81
2022/05/07 09:29:03;;;;;;;3.25;2.88;;;;;;;;;;5060778;28;20202;-80
2022/05/07 09:31:32;;;;;;;4.60;4.20;;;;;;;;;;5061665;28;20234;-80
2022/05/07 09:36:52;;;;;;;3.88;2.40;;;;;;;;;;5060773;28;20202;-80
2022/05/07 09:39:19;;;;;;;5.82;3.25;;;;;;;;;;5060722;28;20237;-80
2022/05/07 09:41:54;;;;;;;4.18;3.45;;;;;;;;;;5060572;28;20288;-80
2022/05/07 09:44:24;;;;;;;3.75;3.45;;;;;;;;;;5060178;28;20219;-81
2022/05/07 09:46:51;;;;;;;2.67;2.42;;;;;;;;;;5061557;28;20221;-81
2022/05/07 09:49:19;;;;;;;4.60;4.20;;;;;;;;;;5061827;28;20209;-80
2022/05/07 09:51:46;;;;;;;4.07;3.67;;;;;;;;;;5060779;28;20233;-80
2022/05/07 09:59:48;;;;;;;2.42;2.22;;;;;;;;;;5060644;28;20274;-81
2022/05/07 10:02:26;;;;;;;3.58;2.90;;;;;;;;;;5060247;28;20272;-81
2022/05/07 10:05:40;;;;;;;2.20;2.00;;;;;;;;;;5060880;28;20201;-80
2022/05/07 10:08:20;;;;;;;3.00;2.80;;;;;;;;;;5059365;28;20714;-80
2022/05/07 10:10:50;;;;;;;4.35;3.78;;;;;;;;;;5060687;28;20202;-81
2022/05/07 10:13:19;;;;;;;5.28;4.75;;;;;;;;;;5059399;28;20206;-80
2022/05/07 10:15:47;;;;;;;4.15;3.78;;;;;;;;;;5060728;28;20210;-80
2022/05/07 10:18:17;;;;;;;5.60;3.60;;;;;;;;;;5059426;28;20198;-82
2022/05/07 10:20:47;;;;;;;5.10;4.68;;;;;;;;;;5060124;28;20202;-81
2022/05/07 10:23:16;;;;;;;3.80;3.30;;;;;;;;;;5060278;28;20586;-81
2022/05/07 10:25:55;;;;;;;3.45;3.17;;;;;;;;;;5057123;28;20212;-80
2022/05/07 10:28:23;;;;;;;3.30;3.00;;;;;;;;;;5058869;28;20267;-81
2022/05/07 10:30:52;;;;;;;5.05;4.47;;;;;;;;;;5059216;28;20666;-80
2022/05/07 10:33:20;;;;;;;3.28;2.97;;;;;;;;;;5059529;28;20621;-80
2022/05/07 10:35:51;;;;;;;3.13;2.92;;;;;;;;;;5061613;28;20674;-80
2022/05/07 10:38:28;;;;;;;5.10;4.68;;;;;;;;;;5062334;28;20205;-80
2022/05/07 10:40:57;;;;;;;3.20;2.92;;;;;;;;;;5060578;28;20572;-80
2022/05/07 10:43:32;;;;;;;4.72;3.88;;;;;;;;;;5060829;28;20755;-80
2022/05/07 10:46:03;;;;;;;4.35;4.05;;;;;;;;;;5060761;28;20268;-80
2022/05/07 10:48:31;;;;;;;4.10;3.80;;;;;;;;;;5059518;28;20233;-80
2022/05/07 10:51:02;;;;;;;2.88;2.60;;;;;;;;;;5060084;28;20202;-80
2022/05/07 10:53:40;;;;;;;2.25;2.05;;;;;;;;;;5058458;28;20604;-80
2022/05/07 10:56:14;;;;;;;3.78;3.40;;;;;;;;;;5055322;28;20201;-80
2022/05/07 10:58:48;;;;;;;4.03;3.63;;;;;;;;;;5054408;28;20689;-79
2022/05/07 11:01:16;;;;;;;2.97;2.67;;;;;;;;;;5053612;28;20718;-79
2022/05/07 11:03:43;;;;;;;5.30;4.47;;;;;;;;;;5053274;28;20206;-79
2022/05/07 11:06:11;;;;;;;4.15;3.38;;;;;;;;;;5053505;28;20591;-79
2022/05/07 11:08:49;;;;;;;2.83;2.63;;;;;;;;;;5054058;28;20249;-79
2022/05/07 11:11:17;;;;;;;2.95;2.70;;;;;;;;;;5053326;28;20664;-79
2022/05/07 11:13:54;;;;;;;3.90;3.28;;;;;;;;;;5052901;28;20202;-80
2022/05/07 11:16:24;;;;;;;3.97;3.60;;;;;;;;;;5053876;28;20201;-80
2022/05/07 11:18:55;;;;;;;3.47;2.83;;;;;;;;;;5053027;28;20202;-80
2022/05/07 11:21:25;;;;;;;4.35;3.95;;;;;;;;;;5053551;28;20225;-80
2022/05/07 11:23:56;;;;;;;3.83;3.38;;;;;;;;;;5053133;28;20202;-80
2022/05/07 11:26:24;;;;;;;2.85;2.65;;;;;;;;;;5053480;28;20206;-77
2022/05/07 11:28:53;;;;;;;3.17;2.88;;;;;;;;;;5053474;28;20226;-79
2022/05/07 11:31:29;;;;;;;3.65;3.35;;;;;;;;;;5053570;28;20221;-78
2022/05/07 11:34:04;;;;;;;4.45;4.05;;;;;;;;;;5053105;28;20205;-78
2022/05/07 11:36:32;;;;;;;2.85;2.65;;;;;;;;;;5054100;28;20636;-78
2022/05/07 11:39:00;;;;;;;3.00;2.33;;;;;;;;;;5053686;28;20640;-78
2022/05/07 11:41:28;;;;;;;3.13;2.80;;;;;;;;;;5053658;28;20222;-78
2022/05/07 11:46:55;;;;;;;3.55;3.25;;;;;;;;;;5054724;28;20208;-79
2022/05/07 11:49:33;;;;;;;3.33;2.97;;;;;;;;;;5054030;28;20243;-79
2022/05/07 11:52:11;;;;;;;2.33;2.13;;;;;;;;;;5053028;28;20221;-78
2022/05/07 11:54:50;;;;;;;4.88;3.67;;;;;;;;;;5053666;28;20202;-78
2022/05/07 11:57:28;;;;;;;3.15;2.60;;;;;;;;;;5053043;28;20204;-78
2022/05/07 11:59:57;;;;;;;2.47;2.33;;;;;;;;;;5053030;28;20201;-79
2022/05/07 12:02:25;;;;;;;4.45;3.75;;;;;;;;;;5052464;28;20241;-78
2022/05/07 12:04:58;;;;;;;4.03;3.53;;;;;;;;;;5052701;28;20214;-78
2022/05/07 12:07:25;;;;;;;4.25;3.03;;;;;;;;;;5052756;28;20673;-78
2022/05/07 12:09:53;;;;;;;3.40;3.10;;;;;;;;;;5052947;28;20213;-78
2022/05/07 12:12:20;;;;;;;3.10;2.90;;;;;;;;;;5052074;28;20229;-77
2022/05/07 12:14:47;;;;;;;3.00;2.67;;;;;;;;;;5052829;28;20201;-78
2022/05/07 12:20:00;;;;;;;4.03;3.55;;;;;;;;;;5052712;28;20592;-78
2022/05/07 12:30:42;;;;;;;4.47;3.35;;;;;;;;;;5053266;28;20208;-78
2022/05/07 12:33:11;;;;;;;3.42;3.20;;;;;;;;;;5051622;28;20202;-79
2022/05/07 12:35:38;;;;;;;3.55;3.25;;;;;;;;;;5052198;28;20201;-78
2022/05/07 12:38:05;;;;;;;3.78;3.47;;;;;;;;;;5052378;28;20201;-79
2022/05/07 12:40:33;;;;;;;3.65;3.30;;;;;;;;;;5052885;28;20206;-78
2022/05/07 12:43:00;;;;;;;4.78;3.80;;;;;;;;;;5052492;28;20221;-79
2022/05/07 12:45:27;;;;;;;3.97;3.58;;;;;;;;;;5053205;28;20213;-78
2022/05/07 12:47:55;;;;;;;3.25;2.95;;;;;;;;;;5052872;28;20640;-78
2022/05/07 12:50:23;;;;;;;3.40;2.92;;;;;;;;;;5052229;28;20231;-79
2022/05/07 12:52:51;;;;;;;3.80;3.50;;;;;;;;;;5052038;28;20272;-79
2022/05/07 12:55:18;;;;;;;3.88;3.50;;;;;;;;;;5056123;28;20201;-78
2022/05/07 12:57:45;;;;;;;4.43;2.85;;;;;;;;;;5056618;28;20201;-79
2022/05/07 13:00:14;;;;;;;2.83;2.60;;;;;;;;;;5056402;28;20669;-79
2022/05/07 13:02:42;;;;;;;3.97;3.67;;;;;;;;;;5055317;28;20229;-78
2022/05/07 13:05:10;;;;;;;3.47;3.17;;;;;;;;;;5056599;28;20208;-79
2022/05/07 13:07:39;;;;;;;3.53;3.22;;;;;;;;;;5056066;28;20202;-78
2022/05/07 13:10:08;;;;;;;2.90;2.58;;;;;;;;;;5055892;28;20263;-79
2022/05/07 13:12:35;;;;;;;3.85;3.55;;;;;;;;;;5055051;28;20229;-79
2022/05/07 13:15:02;;;;;;;3.33;3.03;;;;;;;;;;5054533;28;20731;-78
2022/05/07 13:17:29;;;;;;;2.70;2.55;;;;;;;;;;5055780;28;20233;-78
2022/05/07 13:19:57;;;;;;;3.00;2.80;;;;;;;;;;5054906;28;20194;-78
2022/05/07 13:22:25;;;;;;;2.72;2.50;;;;;;;;;;5055302;28;20287;-78
2022/05/07 13:24:54;;;;;;;2.60;2.30;;;;;;;;;;5056214;28;20202;-78
2022/05/07 13:27:21;;;;;;;3.35;3.05;;;;;;;;;;5056290;28;20251;-79
2022/05/07 13:29:48;;;;;;;3.50;3.20;;;;;;;;;;5056071;28;20275;-78
2022/05/07 13:32:16;;;;;;;3.40;2.75;;;;;;;;;;5055045;28;20660;-79
2022/05/07 13:34:43;;;;;;;1.92;1.83;;;;;;;;;;5055633;28;20202;-78
2022/05/07 13:37:11;;;;;;;2.47;2.28;;;;;;;;;;5055723;28;20209;-78
2022/05/07 13:39:39;;;;;;;3.30;3.05;;;;;;;;;;5056039;28;20227;-79
2022/05/07 13:42:09;;;;;;;2.50;2.30;;;;;;;;;;5054999;28;20229;-78
2022/05/07 13:44:37;;;;;;;2.50;2.35;;;;;;;;;;5055299;28;20251;-78
2022/05/07 13:47:07;;;;;;;2.45;2.22;;;;;;;;;;5055832;28;20202;-77
2022/05/07 13:49:34;;;;;;;3.67;2.42;;;;;;;;;;5055710;28;20224;-78
2022/05/07 13:52:03;;;;;;;2.55;2.35;;;;;;;;;;5054574;28;20313;-78
2022/05/07 13:54:30;;;;;;;2.10;2.00;;;;;;;;;;5055420;28;20201;-78
2022/05/07 13:56:58;;;;;;;1.77;1.67;;;;;;;;;;5055052;28;20197;-77
2022/05/07 13:59:28;;;;;;;2.20;2.00;;;;;;;;;;5055880;28;20630;-78
2022/05/07 14:01:55;;;;;;;2.28;2.10;;;;;;;;;;5054494;28;20229;-78
2022/05/07 14:04:23;;;;;;;2.78;2.58;;;;;;;;;;5055212;28;20209;-79
2022/05/07 14:06:50;;;;;;;3.70;2.55;;;;;;;;;;5054795;28;20629;-78
2022/05/07 14:09:17;;;;;;;3.50;2.17;;;;;;;;;;5054673;28;20228;-78
2022/05/07 14:11:45;;;;;;;2.75;2.55;;;;;;;;;;5053698;28;20721;-79
2022/05/07 14:14:12;;;;;;;2.05;1.90;;;;;;;;;;5054831;28;20206;-78
2022/05/07 14:16:40;;;;;;;1.80;1.70;;;;;;;;;;5053369;28;20212;-78
2022/05/07 14:19:08;;;;;;;2.25;2.13;;;;;;;;;;5054149;28;20193;-78
2022/05/07 14:21:38;;;;;;;2.22;2.03;;;;;;;;;;5054556;28;20645;-78
2022/05/07 14:24:08;;;;;;;2.03;1.83;;;;;;;;;;5055058;28;20204;-78
2022/05/07 14:26:35;;;;;;;2.72;2.53;;;;;;;;;;5054959;28;20331;-78
2022/05/07 14:29:03;;;;;;;3.25;1.98;;;;;;;;;;5054997;28;20312;-78
2022/05/07 14:31:30;;;;;;;2.47;2.28;;;;;;;;;;5054839;28;20359;-78
2022/05/07 14:34:00;;;;;;;1.95;1.75;;;;;;;;;;5053834;28;20704;-78
2022/05/07 14:36:29;;;;;;;2.53;2.33;;;;;;;;;;5054922;28;20205;-78
2022/05/07 14:38:57;;;;;;;2.60;1.75;;;;;;;;;;5054510;28;20259;-78
2022/05/07 14:41:25;;;;;;;2.20;2.00;;;;;;;;;;5054929;28;20217;-78
2022/05/07 14:43:53;;;;;;;1.95;1.83;;;;;;;;;;5053553;28;20204;-78
2022/05/07 14:46:22;;;;;;;1.85;1.70;;;;;;;;;;5054509;28;20229;-78
2022/05/07 14:48:51;;;;;;;1.85;1.75;;;;;;;;;;5054312;28;20735;-78
2022/05/07 14:51:20;;;;;;;2.40;2.25;;;;;;;;;;5054066;28;20257;-78
2022/05/07 14:53:48;;;;;;;1.80;1.67;;;;;;;;;;5053583;28;20209;-78
2022/05/07 14:56:15;;;;;;;1.92;1.70;;;;;;;;;;5053534;28;20645;-77
2022/05/07 14:58:43;;;;;;;2.22;2.03;;;;;;;;;;5053620;28;20197;-78
2022/05/07 15:01:10;;;;;;;1.73;1.63;;;;;;;;;;5053011;28;20233;-77
2022/05/07 15:03:37;;;;;;;1.75;1.65;;;;;;;;;;5052268;28;20209;-78
2022/05/07 15:06:05;;;;;;;2.38;2.20;;;;;;;;;;5052670;28;20201;-77
2022/05/07 15:11:20;;;;;;;2.72;1.83;;;;;;;;;;5053135;28;20306;-77
2022/05/07 15:13:47;;;;;;;2.30;2.10;;;;;;;;;;5052698;28;20577;-78
2022/05/07 15:16:14;;;;;;;1.70;1.60;;;;;;;;;;5052896;28;20205;-77
2022/05/07 15:18:43;;;;;;;1.67;1.58;;;;;;;;;;5051858;28;20678;-77
2022/05/07 15:21:12;;;;;;;1.98;1.70;;;;;;;;;;5052547;28;20221;-78
2022/05/07 15:23:42;;;;;;;1.60;1.50;;;;;;;;;;5052770;28;20210;-77
2022/05/07 15:26:09;;;;;;;2.20;1.90;;;;;;;;;;5053620;28;20231;-76
2022/05/07 15:28:36;;;;;;;1.58;1.45;;;;;;;;;;5053094;28;20213;-78
2022/05/07 15:31:04;;;;;;;1.38;1.27;;;;;;;;;;5052068;28;20256;-77
2022/05/07 15:39:02;;;;;;;2.65;1.73;;;;;;;;;;5052896;28;20204;-77
2022/05/07 15:41:29;;;;;;;2.03;1.92;;;;;;;;;;5052697;28;20226;-77
2022/05/07 15:43:57;;;;;;;2.35;2.15;;;;;;;;;;5052006;28;20206;-77